createdAt,value
2018-08-11T00:02:08.379Z,45.76
2018-08-11T00:05:11.516Z,45.82
2018-08-11T00:08:14.739Z,45.40
2018-08-11T00:11:17.841Z,46.02
2018-08-11T00:14:20.958Z,45.42
2018-08-11T00:17:24.012Z,46.08
2018-08-11T00:20:28.294Z,47.18
2018-08-11T00:23:31.328Z,46.29
2018-08-11T00:26:34.330Z,45.96
2018-08-11T00:29:37.460Z,45.34
2018-08-11T00:32:40.662Z,45.66
2018-08-11T00:35:43.838Z,45.71
2018-08-11T00:38:46.906Z,45.63
2018-08-11T00:41:50.107Z,46.09
2018-08-11T00:44:53.194Z,46.83
2018-08-11T00:47:56.230Z,46.17
2018-08-11T00:50:59.469Z,46.51
2018-08-11T00:54:02.558Z,46.86
2018-08-11T00:57:09.271Z,46.06
2018-08-11T01:00:16.309Z,47.58
2018-08-11T01:03:28.464Z,47.14
2018-08-11T01:06:32.250Z,48.38
2018-08-11T01:09:42.592Z,48.91
2018-08-11T01:12:46.382Z,48.47
2018-08-11T01:15:49.584Z,47.58
2018-08-11T01:18:59.224Z,48.22
2018-08-11T01:22:04.418Z,48.44
2018-08-11T01:25:07.898Z,48.37
2018-08-11T01:28:17.775Z,50.43
2018-08-11T01:31:30.666Z,56.40
2018-08-11T01:34:39.126Z,58.75
2018-08-11T01:37:44.130Z,60.17
2018-08-11T01:40:47.201Z,61.39
2018-08-11T01:43:53.493Z,60.96
2018-08-11T01:46:56.618Z,61.16
2018-08-11T01:49:59.769Z,61.04
2018-08-11T01:53:06.849Z,60.89
2018-08-11T01:56:10.787Z,64.01
2018-08-11T01:59:14.270Z,66.36
2018-08-11T02:02:19.138Z,67.85
2018-08-11T02:05:25.612Z,67.16
2018-08-11T02:08:29.470Z,68.14
2018-08-11T02:11:32.523Z,67.57
2018-08-11T02:14:35.633Z,66.72
2018-08-11T02:17:38.730Z,67.13
2018-08-11T02:20:41.815Z,66.97
2018-08-11T02:23:44.945Z,68.97
2018-08-11T02:26:48.090Z,68.72
2018-08-11T02:29:51.190Z,67.97
2018-08-11T02:32:54.238Z,68.40
2018-08-11T02:35:57.335Z,68.82
2018-08-11T02:39:00.431Z,68.49
2018-08-11T02:42:03.590Z,68.92
2018-08-11T02:45:13.383Z,68.91
2018-08-11T02:48:25.719Z,68.41
2018-08-11T02:51:30.159Z,68.27
2018-08-11T02:54:33.211Z,68.12
2018-08-11T02:57:36.437Z,67.97
2018-08-11T03:00:39.435Z,68.24
2018-08-11T03:03:42.465Z,67.98
2018-08-11T03:06:45.446Z,67.44
2018-08-11T03:09:48.439Z,68.03
2018-08-11T03:12:51.403Z,66.68
2018-08-11T03:15:54.565Z,67.80
2018-08-11T03:18:57.631Z,67.92
2018-08-11T03:22:00.715Z,67.98
2018-08-11T03:25:04.475Z,69.23
2018-08-11T03:28:07.533Z,68.22
2018-08-11T03:31:10.584Z,69.15
2018-08-11T03:34:13.529Z,68.91
2018-08-11T03:37:16.663Z,68.06
2018-08-11T03:40:21.010Z,68.82
2018-08-11T03:43:24.031Z,69.58
2018-08-11T03:46:26.955Z,68.40
2018-08-11T03:49:30.011Z,68.98
2018-08-11T03:52:33.176Z,69.70
2018-08-11T03:55:36.192Z,68.37
2018-08-11T03:58:39.499Z,70.22
2018-08-11T04:01:42.517Z,70.17
2018-08-11T04:04:45.526Z,69.43
2018-08-11T04:07:48.721Z,69.73
2018-08-11T04:10:51.625Z,70.79
2018-08-11T04:13:54.608Z,69.83
2018-08-11T04:16:57.601Z,70.14
2018-08-11T04:20:00.687Z,71.00
2018-08-11T04:23:03.851Z,69.60
2018-08-11T04:26:06.929Z,68.86
2018-08-11T04:29:10.121Z,68.96
2018-08-11T04:32:13.105Z,68.03
2018-08-11T04:35:16.127Z,67.99
2018-08-11T04:38:19.137Z,69.57
2018-08-11T04:41:22.159Z,68.38
2018-08-11T04:44:25.136Z,68.77
2018-08-11T04:47:28.264Z,68.48
2018-08-11T04:50:31.313Z,69.75
2018-08-11T04:53:34.629Z,68.64
2018-08-11T04:56:37.659Z,68.86
2018-08-11T04:59:40.733Z,69.44
2018-08-11T05:02:43.843Z,68.85
2018-08-11T05:05:46.872Z,68.70
2018-08-11T05:08:49.968Z,69.72
2018-08-11T05:11:52.965Z,69.99
2018-08-11T05:14:56.013Z,69.71
2018-08-11T05:17:59.034Z,69.58
2018-08-11T05:21:02.029Z,69.66
2018-08-11T05:24:05.549Z,70.75
2018-08-11T05:27:08.598Z,68.91
2018-08-11T05:30:11.698Z,69.74
2018-08-11T05:33:14.873Z,70.52
2018-08-11T05:36:17.824Z,69.77
2018-08-11T05:39:20.857Z,69.96
2018-08-11T05:42:23.869Z,71.65
2018-08-11T05:45:27.108Z,71.78
2018-08-11T05:48:30.145Z,72.23
2018-08-11T05:51:33.409Z,72.44
2018-08-11T05:54:36.437Z,71.62
2018-08-11T05:57:39.675Z,70.32
2018-08-11T06:00:42.686Z,71.68
2018-08-11T06:03:45.738Z,71.12
2018-08-11T06:06:48.728Z,71.57
2018-08-11T06:09:51.760Z,71.39
2018-08-11T06:12:54.827Z,70.49
2018-08-11T06:15:57.851Z,70.92
2018-08-11T06:19:00.976Z,70.76
2018-08-11T06:22:04.105Z,70.92
2018-08-11T06:25:08.977Z,70.93
2018-08-11T06:28:12.146Z,70.96
2018-08-11T06:31:15.213Z,70.78
2018-08-11T06:34:18.222Z,70.27
2018-08-11T06:37:21.224Z,70.95
2018-08-11T06:40:24.214Z,70.33
2018-08-11T06:43:27.238Z,69.79
2018-08-11T06:46:30.344Z,70.89
2018-08-11T06:49:33.333Z,70.55
2018-08-11T06:52:36.461Z,69.69
2018-08-11T06:55:40.152Z,69.70
2018-08-11T06:58:49.919Z,69.07
2018-08-11T07:01:53.044Z,68.93
2018-08-11T07:04:56.021Z,69.25
2018-08-11T07:07:59.139Z,69.02
2018-08-11T07:11:02.129Z,68.95
2018-08-11T07:14:05.180Z,68.75
2018-08-11T07:17:08.251Z,68.16
2018-08-11T07:20:11.344Z,67.58
2018-08-11T07:23:14.328Z,68.03
2018-08-11T07:26:17.261Z,66.51
2018-08-11T07:29:20.256Z,66.91
2018-08-11T07:32:23.223Z,65.91
2018-08-11T07:35:26.160Z,65.11
2018-08-11T07:38:29.759Z,64.24
2018-08-11T07:41:33.554Z,63.70
2018-08-11T07:44:36.673Z,62.90
2018-08-11T07:47:39.851Z,63.39
2018-08-11T07:50:42.803Z,63.01
2018-08-11T07:53:45.788Z,62.27
2018-08-11T07:56:48.929Z,62.10
2018-08-11T07:59:52.002Z,61.09
2018-08-11T08:02:55.066Z,60.56
2018-08-11T08:05:58.103Z,60.65
2018-08-11T08:09:01.177Z,59.04
2018-08-11T08:12:04.366Z,58.76
2018-08-11T08:15:07.613Z,58.20
2018-08-11T08:18:10.574Z,58.71
2018-08-11T08:21:13.556Z,59.27
2018-08-11T08:24:16.514Z,58.89
2018-08-11T08:27:19.600Z,57.81
2018-08-11T08:30:22.606Z,57.55
2018-08-11T08:33:25.749Z,56.57
2018-08-11T08:36:28.739Z,55.68
2018-08-11T08:39:32.165Z,56.23
2018-08-11T08:42:35.203Z,54.86
2018-08-11T08:45:38.385Z,55.36
2018-08-11T08:48:41.342Z,56.45
2018-08-11T08:51:44.486Z,56.47
2018-08-11T08:54:47.745Z,54.39
2018-08-11T08:57:50.789Z,55.87
2018-08-11T09:00:53.793Z,53.01
2018-08-11T09:03:56.945Z,51.57
2018-08-11T09:07:00.129Z,50.47
2018-08-11T09:10:03.704Z,50.81
2018-08-11T09:13:07.070Z,51.71
2018-08-11T09:16:10.021Z,50.96
2018-08-11T09:19:13.161Z,48.27
2018-08-11T09:22:16.116Z,50.23
2018-08-11T09:25:19.078Z,49.97
2018-08-11T09:28:22.094Z,48.86
2018-08-11T09:31:25.064Z,48.77
2018-08-11T09:34:28.112Z,48.67
2018-08-11T09:37:31.091Z,50.39
2018-08-11T09:40:34.538Z,49.66
2018-08-11T09:43:37.842Z,48.34
2018-08-11T09:46:40.966Z,48.19
2018-08-11T09:49:43.985Z,46.72
2018-08-11T09:52:46.979Z,47.26
2018-08-11T09:55:50.037Z,48.19
2018-08-11T09:58:53.048Z,48.80
2018-08-11T10:02:01.735Z,48.85
2018-08-11T10:05:05.575Z,49.98
2018-08-11T10:08:08.900Z,47.91
2018-08-11T10:11:12.856Z,47.56
2018-08-11T10:14:15.924Z,46.12
2018-08-11T10:17:18.939Z,45.18
2018-08-11T10:20:22.084Z,46.23
2018-08-11T10:23:25.122Z,45.80
2018-08-11T10:26:28.309Z,46.21
2018-08-11T10:29:31.396Z,44.71
2018-08-11T10:32:34.467Z,44.83
2018-08-11T10:35:37.526Z,45.22
2018-08-11T10:38:40.622Z,44.97
2018-08-11T10:41:43.692Z,45.90
2018-08-11T10:44:46.731Z,45.37
2018-08-11T10:47:49.748Z,45.46
2018-08-11T10:50:52.805Z,45.89
2018-08-11T10:53:55.752Z,46.22
2018-08-11T10:56:58.730Z,45.90
2018-08-11T11:00:01.880Z,45.99
2018-08-11T11:03:06.034Z,46.45
2018-08-11T11:06:09.289Z,45.54
2018-08-11T11:09:12.781Z,44.26
2018-08-11T11:12:15.988Z,45.60
2018-08-11T11:15:19.131Z,43.70
2018-08-11T11:18:22.480Z,44.35
2018-08-11T11:21:25.493Z,43.57
2018-08-11T11:24:28.593Z,44.93
2018-08-11T11:27:31.754Z,45.09
2018-08-11T11:30:34.907Z,45.11
2018-08-11T11:33:37.935Z,45.17
2018-08-11T11:36:40.931Z,45.66
2018-08-11T11:39:43.890Z,41.23
2018-08-11T11:42:46.795Z,41.21
2018-08-11T11:45:49.750Z,42.07
2018-08-11T11:48:52.755Z,41.04
2018-08-11T11:51:55.703Z,42.52
2018-08-11T11:54:58.857Z,43.21
2018-08-11T11:58:01.973Z,42.25
2018-08-11T12:01:05.099Z,42.96
2018-08-11T12:04:08.141Z,40.55
2018-08-11T12:07:11.152Z,41.05
2018-08-11T12:10:14.108Z,41.91
2018-08-11T12:13:17.079Z,40.06
2018-08-11T12:16:19.988Z,40.78
2018-08-11T12:19:23.037Z,39.02
2018-08-11T12:22:25.961Z,37.07
2018-08-11T12:25:29.766Z,36.86
2018-08-11T12:28:32.935Z,37.34
2018-08-11T12:31:36.225Z,38.12
2018-08-11T12:34:39.400Z,38.70
2018-08-11T12:37:42.485Z,37.46
2018-08-11T12:40:45.436Z,38.23
2018-08-11T12:43:48.419Z,38.39
2018-08-11T12:46:51.415Z,39.56
2018-08-11T12:49:54.468Z,35.84
2018-08-11T12:52:57.489Z,37.50
2018-08-11T12:56:01.382Z,39.09
2018-08-11T12:59:04.474Z,35.30
2018-08-11T13:02:07.693Z,33.97
2018-08-11T13:05:10.760Z,33.88
2018-08-11T13:08:13.819Z,33.20
2018-08-11T13:11:16.856Z,33.75
2018-08-11T13:14:19.804Z,36.88
2018-08-11T13:17:22.822Z,37.66
2018-08-11T13:20:25.867Z,36.47
2018-08-11T13:23:28.921Z,36.85
2018-08-11T13:26:31.990Z,35.40
2018-08-11T13:29:35.237Z,34.30
2018-08-11T13:32:38.370Z,32.47
2018-08-11T13:35:41.415Z,33.26
2018-08-11T13:38:44.403Z,33.83
2018-08-11T13:41:48.647Z,34.26
2018-08-11T13:44:51.657Z,33.80
2018-08-11T13:47:54.678Z,32.49
2018-08-11T13:50:57.720Z,33.51
2018-08-11T13:54:00.791Z,34.84
2018-08-11T13:57:10.753Z,34.69
2018-08-11T14:00:13.838Z,35.69
2018-08-11T14:03:16.892Z,33.30
2018-08-11T14:06:19.974Z,34.98
2018-08-11T14:09:22.990Z,34.69
2018-08-11T14:12:25.979Z,35.38
2018-08-11T14:15:29.215Z,34.88
2018-08-11T14:18:32.393Z,35.40
2018-08-11T14:21:36.019Z,35.56
2018-08-11T14:24:39.431Z,35.06
2018-08-11T14:27:42.838Z,32.83
2018-08-11T14:30:46.311Z,35.30
2018-08-11T14:33:49.923Z,34.62
2018-08-11T14:36:54.942Z,35.03
2018-08-11T14:39:59.364Z,35.20
2018-08-11T14:43:03.069Z,35.58
2018-08-11T14:46:07.339Z,34.59
2018-08-11T14:49:10.742Z,36.61
2018-08-11T14:52:15.485Z,37.52
2018-08-11T14:55:19.037Z,35.52
2018-08-11T14:58:22.680Z,36.73
2018-08-11T15:01:26.689Z,36.33
2018-08-11T15:04:30.598Z,34.22
2018-08-11T15:07:34.599Z,34.40
2018-08-11T15:10:38.524Z,35.20
2018-08-11T15:13:42.497Z,33.22
2018-08-11T15:16:46.303Z,35.46
2018-08-11T15:19:50.061Z,35.43
2018-08-11T15:22:53.725Z,35.41
2018-08-11T15:25:57.259Z,35.38
2018-08-11T15:29:01.223Z,35.56
2018-08-11T15:32:04.996Z,35.34
2018-08-11T15:35:09.342Z,36.71
2018-08-11T15:38:13.406Z,36.75
2018-08-11T15:41:17.163Z,37.31
2018-08-11T15:44:20.740Z,36.85
2018-08-11T15:47:24.449Z,36.72
2018-08-11T15:50:28.008Z,36.52
2018-08-11T15:53:32.366Z,35.27
2018-08-11T15:56:36.058Z,35.41
2018-08-11T15:59:39.797Z,35.02
2018-08-11T16:02:42.857Z,35.65
2018-08-11T16:05:46.162Z,35.92
2018-08-11T16:08:50.490Z,36.36
2018-08-11T16:11:53.489Z,37.11
2018-08-11T16:14:56.598Z,36.62
2018-08-11T16:17:59.646Z,36.35
2018-08-11T16:21:02.679Z,37.89
2018-08-11T16:24:05.758Z,38.58
2018-08-11T16:27:08.790Z,38.21
2018-08-11T16:30:12.774Z,38.25
2018-08-11T16:33:15.927Z,36.94
2018-08-11T16:36:18.976Z,37.62
2018-08-11T16:39:22.214Z,37.63
2018-08-11T16:42:25.177Z,40.06
2018-08-11T16:45:28.210Z,38.25
2018-08-11T16:48:31.394Z,37.95
2018-08-11T16:51:41.062Z,39.49
2018-08-11T16:54:44.333Z,40.63
2018-08-11T16:57:47.433Z,38.75
2018-08-11T17:00:50.555Z,39.22
2018-08-11T17:03:53.495Z,37.83
2018-08-11T17:06:56.646Z,39.10
2018-08-11T17:09:59.781Z,40.22
2018-08-11T17:13:02.852Z,39.50
2018-08-11T17:16:06.002Z,38.20
2018-08-11T17:19:09.027Z,40.33
2018-08-11T17:22:12.069Z,42.17
2018-08-11T17:25:15.083Z,40.01
2018-08-11T17:28:18.151Z,40.15
2018-08-11T17:31:21.210Z,39.08
2018-08-11T17:34:24.231Z,38.75
2018-08-11T17:37:27.233Z,40.22
2018-08-11T17:40:33.238Z,41.09
2018-08-11T17:43:36.306Z,39.69
2018-08-11T17:46:39.316Z,39.05
2018-08-11T17:49:42.369Z,41.20
2018-08-11T17:52:45.377Z,42.36
2018-08-11T17:55:48.385Z,42.03
2018-08-11T17:58:51.414Z,43.31
2018-08-11T18:01:54.452Z,42.35
2018-08-11T18:04:57.463Z,43.18
2018-08-11T18:08:00.530Z,42.83
2018-08-11T18:11:03.890Z,43.27
2018-08-11T18:14:07.008Z,42.59
2018-08-11T18:17:10.074Z,39.90
2018-08-11T18:20:13.111Z,39.61
2018-08-11T18:23:16.161Z,39.65
2018-08-11T18:26:19.175Z,41.72
2018-08-11T18:29:22.195Z,40.01
2018-08-11T18:32:25.164Z,42.29
2018-08-11T18:35:28.242Z,40.67
2018-08-11T18:38:31.268Z,43.37
2018-08-11T18:41:34.357Z,43.91
2018-08-11T18:44:37.679Z,45.24
2018-08-11T18:47:40.842Z,45.35
2018-08-11T18:50:43.868Z,45.46
2018-08-11T18:53:46.875Z,45.98
2018-08-11T18:56:49.940Z,45.93
2018-08-11T18:59:53.895Z,47.12
2018-08-11T19:02:56.951Z,47.59
2018-08-11T19:06:00.079Z,46.57
2018-08-11T19:09:05.346Z,47.99
2018-08-11T19:12:08.514Z,47.99
2018-08-11T19:15:13.454Z,47.80
2018-08-11T19:18:16.585Z,47.71
2018-08-11T19:21:19.745Z,47.87
2018-08-11T19:24:22.781Z,48.22
2018-08-11T19:27:25.905Z,48.49
2018-08-11T19:30:28.878Z,48.38
2018-08-11T19:33:31.966Z,47.82
2018-08-11T19:36:35.008Z,48.35
2018-08-11T19:39:38.042Z,48.42
2018-08-11T19:42:41.055Z,48.59
2018-08-11T19:45:44.133Z,48.59
2018-08-11T19:48:50.034Z,48.44
2018-08-11T19:51:53.091Z,49.08
2018-08-11T19:54:56.281Z,49.43
2018-08-11T19:57:59.318Z,49.48
2018-08-11T20:01:02.427Z,49.73
2018-08-11T20:04:05.590Z,49.60
2018-08-11T20:07:08.743Z,50.00
2018-08-11T20:10:11.772Z,50.41
2018-08-11T20:13:14.777Z,50.41
2018-08-11T20:16:17.864Z,50.05
2018-08-11T20:19:20.913Z,49.62
2018-08-11T20:22:23.931Z,50.73
2018-08-11T20:25:27.061Z,50.55
2018-08-11T20:28:30.334Z,51.24
2018-08-11T20:31:33.431Z,50.94
2018-08-11T20:34:36.638Z,51.08
2018-08-11T20:37:39.714Z,51.20
2018-08-11T20:40:42.713Z,51.13
2018-08-11T20:43:45.928Z,51.84
2018-08-11T20:46:49.097Z,51.28
2018-08-11T20:49:52.043Z,50.80
2018-08-11T20:52:55.113Z,51.12
2018-08-11T20:55:58.262Z,51.30
2018-08-11T20:59:01.294Z,51.61
2018-08-11T21:02:04.558Z,51.69
2018-08-11T21:05:11.130Z,51.81
2018-08-11T21:08:14.198Z,50.99
2018-08-11T21:11:17.220Z,51.23
2018-08-11T21:14:20.324Z,52.12
2018-08-11T21:17:23.322Z,51.39
2018-08-11T21:20:26.398Z,52.01
2018-08-11T21:23:29.569Z,52.58
2018-08-11T21:26:32.553Z,52.10
2018-08-11T21:29:35.714Z,52.51
2018-08-11T21:32:38.941Z,52.87
2018-08-11T21:35:41.972Z,52.30
2018-08-11T21:38:45.013Z,52.79
2018-08-11T21:41:48.005Z,52.86
2018-08-11T21:44:51.093Z,52.78
2018-08-11T21:47:54.277Z,52.64
2018-08-11T21:50:57.313Z,52.70
2018-08-11T21:54:07.488Z,53.59
2018-08-11T21:57:10.573Z,52.77
2018-08-11T22:00:28.882Z,53.30
2018-08-11T22:03:32.002Z,53.27
2018-08-11T22:06:35.061Z,53.43
2018-08-11T22:09:38.051Z,53.54
2018-08-11T22:12:41.186Z,53.42
2018-08-11T22:15:44.216Z,53.40
2018-08-11T22:18:47.338Z,53.89
2018-08-11T22:21:50.418Z,54.07
2018-08-11T22:24:53.461Z,53.86
2018-08-11T22:27:56.537Z,53.52
2018-08-11T22:30:59.802Z,53.30
2018-08-11T22:34:02.930Z,53.80
2018-08-11T22:37:06.141Z,53.88
2018-08-11T22:40:09.532Z,53.88
2018-08-11T22:43:12.643Z,54.70
2018-08-11T22:46:16.080Z,52.09
2018-08-11T22:49:21.039Z,51.69
2018-08-11T22:52:24.244Z,53.00
2018-08-11T22:55:27.342Z,53.08
2018-08-11T22:58:30.597Z,53.82
2018-08-11T23:01:33.675Z,54.34
2018-08-11T23:04:36.797Z,54.06
2018-08-11T23:07:40.515Z,54.93
2018-08-11T23:10:44.528Z,55.50
2018-08-11T23:13:47.910Z,54.90
2018-08-11T23:16:51.270Z,54.38
2018-08-11T23:19:55.965Z,55.25
2018-08-11T23:22:59.430Z,55.03
2018-08-11T23:26:03.097Z,55.00
2018-08-11T23:29:06.242Z,55.26
2018-08-11T23:32:09.406Z,54.98
2018-08-11T23:35:13.131Z,55.63
2018-08-11T23:38:16.961Z,55.98
2018-08-11T23:41:20.122Z,55.45
2018-08-11T23:44:23.185Z,56.12
2018-08-11T23:47:26.391Z,56.82
2018-08-11T23:50:29.792Z,56.77
2018-08-11T23:53:33.421Z,56.67
2018-08-11T23:56:36.818Z,56.95
2018-08-11T23:59:40.653Z,57.11
